Time;durP1;ratioP1;P1;durP2;ratioP2;P2;SDS_P1;SDS_P2;PMS_P1;PMS_P2;Temp;Humidity;BMP_temperature;BMP_pressure;BME280_temperature;BME280_humidity;BME280_pressure;Samples;Min_cycle;Max_cycle;Signal;HPM_P1;HPM_P2
2022/05/22 00:00:28;;;;;;;18.50;6.68;;;;;;;9.83;100.00;101922.81;5266047;28;20012;-70
2022/05/22 00:02:58;;;;;;;17.42;7.20;;;;;;;9.78;100.00;101917.03;5286646;28;20157;-70
2022/05/22 00:05:29;;;;;;;19.92;6.68;;;;;;;9.73;100.00;101914.75;5285934;28;20107;-70
2022/05/22 00:07:59;;;;;;;19.25;6.68;;;;;;;9.69;100.00;101923.19;5283722;28;20084;-70
2022/05/22 00:10:30;;;;;;;14.93;6.88;;;;;;;9.68;100.00;101918.81;5270104;28;20036;-70
2022/05/22 00:13:01;;;;;;;18.60;7.15;;;;;;;9.74;100.00;101912.91;5275345;28;20022;-69
2022/05/22 00:15:32;;;;;;;20.00;7.82;;;;;;;9.77;100.00;101916.19;5278126;28;20473;-70
2022/05/22 00:18:02;;;;;;;13.25;6.18;;;;;;;9.81;100.00;101908.72;5277101;28;20698;-69
2022/05/22 00:20:33;;;;;;;14.52;6.68;;;;;;;9.80;100.00;101913.25;5281369;28;20150;-71
2022/05/22 00:23:04;;;;;;;13.75;6.32;;;;;;;9.77;100.00;101915.34;5278043;28;20031;-71
2022/05/22 00:25:34;;;;;;;15.18;6.75;;;;;;;9.65;100.00;101916.44;5286337;28;20032;-71
2022/05/22 00:28:05;;;;;;;14.73;6.30;;;;;;;9.60;100.00;101911.47;5273339;27;20036;-70
2022/05/22 00:30:35;;;;;;;16.05;6.65;;;;;;;9.58;100.00;101914.25;5286612;28;20026;-71
2022/05/22 00:33:06;;;;;;;16.30;6.53;;;;;;;9.57;100.00;101911.72;5286078;28;20392;-71
2022/05/22 00:35:37;;;;;;;13.93;6.90;;;;;;;9.49;100.00;101903.53;5265012;28;20020;-71
2022/05/22 00:38:08;;;;;;;20.40;7.47;;;;;;;9.42;100.00;101899.66;5265329;28;20034;-71
2022/05/22 00:40:38;;;;;;;18.55;7.32;;;;;;;9.41;100.00;101896.13;5276471;28;20103;-71
2022/05/22 00:43:24;;;;;;;15.30;7.15;;;;;;;9.40;100.00;101889.09;5272583;28;20032;-71
2022/05/22 00:45:55;;;;;;;;;;;;;;;9.47;100.00;101886.72;5271689;28;20032;-71
2022/05/22 00:48:27;;;;;;;18.38;6.70;;;;;;;9.42;100.00;101887.13;5286541;28;19907;-70
2022/05/22 00:51:03;;;;;;;12.75;5.95;;;;;;;9.33;100.00;101887.91;5272530;28;20059;-71
2022/05/22 00:53:40;;;;;;;17.50;7.18;;;;;;;9.25;100.00;101890.41;5276012;28;20020;-71
2022/05/22 00:56:17;;;;;;;13.27;6.53;;;;;;;9.20;100.00;101887.28;5283601;28;20059;-71
2022/05/22 00:58:53;;;;;;;15.20;6.38;;;;;;;9.21;100.00;101892.50;5286474;28;20035;-70
2022/05/22 01:01:23;;;;;;;16.70;5.63;;;;;;;9.16;100.00;101892.06;5273310;28;20085;-71
2022/05/22 01:03:56;;;;;;;15.25;6.75;;;;;;;9.09;100.00;101896.25;5285425;28;20028;-71
2022/05/22 01:06:27;;;;;;;15.32;6.22;;;;;;;9.02;100.00;101898.56;5270629;28;20020;-71
2022/05/22 01:08:58;;;;;;;14.07;6.63;;;;;;;8.97;100.00;101891.91;5286258;27;20051;-71
2022/05/22 01:11:34;;;;;;;21.23;7.05;;;;;;;8.97;100.00;101892.75;5275937;28;20441;-71
2022/05/22 01:14:26;;;;;;;14.85;6.50;;;;;;;9.07;100.00;101882.97;5279799;28;20051;-71
2022/05/22 01:17:01;;;;;;;17.42;6.35;;;;;;;8.95;100.00;101881.34;5272880;28;20154;-70
2022/05/22 01:19:31;;;;;;;10.60;6.38;;;;;;;8.87;100.00;101870.44;5286462;28;20028;-70
2022/05/22 01:22:07;;;;;;;20.38;7.65;;;;;;;8.80;100.00;101862.09;5275700;28;20384;-70
2022/05/22 01:24:37;;;;;;;14.82;6.50;;;;;;;8.79;100.00;101856.88;5290009;28;20420;-70
2022/05/22 01:27:13;;;;;;;11.75;6.00;;;;;;;8.87;100.00;101853.53;5289214;28;20020;-69
2022/05/22 01:29:44;;;;;;;10.60;4.32;;;;;;;8.81;100.00;101854.91;5275526;28;20551;-70
2022/05/22 01:32:15;;;;;;;11.40;5.45;;;;;;;8.75;100.00;101866.16;5269088;28;20386;-70
2022/05/22 01:34:45;;;;;;;12.98;5.80;;;;;;;8.78;100.00;101856.00;5282416;28;20028;-70
2022/05/22 01:37:16;;;;;;;20.63;6.95;;;;;;;8.82;100.00;101861.97;5278058;28;20031;-71
2022/05/22 01:39:48;;;;;;;16.70;7.43;;;;;;;8.78;100.00;101863.19;5272057;28;20016;-71
2022/05/22 01:42:19;;;;;;;16.52;7.47;;;;;;;8.78;100.00;101852.50;5279701;28;20023;-72
2022/05/22 01:44:59;;;;;;;25.50;7.28;;;;;;;8.80;100.00;101859.41;5269838;27;20055;-71
2022/05/22 01:47:33;;;;;;;16.55;7.85;;;;;;;8.82;100.00;101852.09;5268692;28;20020;-71
2022/05/22 01:50:08;;;;;;;19.52;6.80;;;;;;;8.81;100.00;101846.88;5277346;28;20476;-73
2022/05/22 01:52:39;;;;;;;20.45;7.93;;;;;;;8.81;100.00;101850.41;5289293;28;20536;-71
2022/05/22 01:55:18;;;;;;;14.23;6.75;;;;;;;8.86;100.00;101852.69;5289334;28;20397;-71
2022/05/22 01:57:54;;;;;;;18.38;6.88;;;;;;;8.91;100.00;101844.28;5275987;28;20023;-71
2022/05/22 02:00:26;;;;;;;10.50;5.85;;;;;;;8.92;100.00;101836.09;5275822;28;20085;-71
2022/05/22 02:03:00;;;;;;;14.30;6.82;;;;;;;8.91;100.00;101839.78;5275776;28;20024;-71
2022/05/22 02:05:31;;;;;;;18.75;7.00;;;;;;;8.89;100.00;101831.03;5289287;27;20154;-71
2022/05/22 02:11:11;;;;;;;18.00;6.22;;;;;;;8.78;100.00;101833.75;5287575;28;20193;-71
2022/05/22 02:13:44;;;;;;;40.85;7.00;;;;;;;8.68;100.00;101824.81;5286737;28;20023;-72
2022/05/22 02:16:17;;;;;;;59.35;8.60;;;;;;;8.60;100.00;101827.31;5276885;28;20020;-71
2022/05/22 02:18:48;;;;;;;33.97;6.25;;;;;;;8.53;100.00;101825.16;5272213;28;20031;-71
2022/05/22 02:21:20;;;;;;;11.80;5.50;;;;;;;8.48;100.00;101822.03;5277252;28;20046;-71
2022/05/22 02:23:50;;;;;;;45.35;6.22;;;;;;;8.45;100.00;101821.44;5272909;28;20111;-70
2022/05/22 02:26:20;;;;;;;13.45;5.78;;;;;;;8.44;100.00;101822.41;5276140;28;20495;-71
2022/05/22 02:28:51;;;;;;;11.82;5.93;;;;;;;8.41;100.00;101820.81;5281532;28;20051;-71
2022/05/22 02:31:21;;;;;;;9.38;4.85;;;;;;;8.44;100.00;101817.06;5281251;28;20024;-71
2022/05/22 02:33:52;;;;;;;10.15;5.22;;;;;;;8.49;100.00;101821.03;5267236;28;20462;-72
2022/05/22 02:36:22;;;;;;;10.68;5.97;;;;;;;8.52;100.00;101820.75;5282313;28;20023;-71
2022/05/22 02:38:53;;;;;;;13.38;7.03;;;;;;;8.55;100.00;101804.47;5278808;27;20020;-71
2022/05/22 02:41:25;;;;;;;13.65;7.03;;;;;;;8.50;100.00;101803.16;5281219;28;20031;-71
2022/05/22 02:43:55;;;;;;;24.90;8.20;;;;;;;8.49;100.00;101806.81;5278836;28;20019;-71
2022/05/22 02:46:26;;;;;;;17.25;7.50;;;;;;;8.51;100.00;101799.50;5269661;28;20036;-72
2022/05/22 02:48:56;;;;;;;21.42;7.38;;;;;;;8.51;100.00;101800.34;5267553;28;20066;-72
2022/05/22 02:51:27;;;;;;;12.23;6.65;;;;;;;8.53;100.00;101784.16;5281045;28;20107;-72
2022/05/22 02:53:57;;;;;;;15.18;6.65;;;;;;;8.54;100.00;101786.72;5280830;28;20016;-70
2022/05/22 02:56:28;;;;;;;14.93;6.57;;;;;;;8.53;100.00;101784.16;5267132;28;20141;-71
2022/05/22 02:58:59;;;;;;;12.63;7.45;;;;;;;8.52;100.00;101794.03;5268324;28;20397;-71
2022/05/22 03:01:29;;;;;;;12.25;6.38;;;;;;;8.50;100.00;101787.97;5288180;28;20034;-71
2022/05/22 03:04:00;;;;;;;21.88;7.07;;;;;;;8.49;100.00;101790.78;5272127;28;20020;-71
2022/05/22 03:09:19;;;;;;;8.63;4.85;;;;;;;8.45;100.00;101789.34;5288275;28;20499;-71
2022/05/22 03:11:49;;;;;;;12.35;5.10;;;;;;;8.43;100.00;101777.91;5287757;28;20030;-72
2022/05/22 03:14:20;;;;;;;19.80;6.97;;;;;;;8.38;100.00;101778.28;5283399;28;20020;-70
2022/05/22 03:16:50;;;;;;;8.40;4.97;;;;;;;8.34;100.00;101779.53;5273674;28;20024;-70
2022/05/22 03:19:21;;;;;;;15.23;6.65;;;;;;;8.30;100.00;101775.41;5274927;28;20024;-70
2022/05/22 03:21:52;;;;;;;26.38;6.05;;;;;;;8.28;100.00;101767.50;5286137;28;20073;-70
2022/05/22 03:24:22;;;;;;;11.30;5.38;;;;;;;8.23;100.00;101774.19;5266101;28;20078;-70
2022/05/22 03:26:53;;;;;;;15.77;5.82;;;;;;;8.24;100.00;101770.56;5281830;28;20068;-70
2022/05/22 03:29:23;;;;;;;9.90;5.32;;;;;;;8.24;100.00;101758.06;5287714;28;20055;-70
2022/05/22 03:31:54;;;;;;;7.50;4.72;;;;;;;8.22;100.00;101756.47;5287570;28;20384;-70
2022/05/22 03:34:25;;;;;;;10.43;5.88;;;;;;;8.17;100.00;101758.69;5276137;28;20528;-70
2022/05/22 03:36:56;;;;;;;16.85;6.18;;;;;;;8.17;100.00;101758.69;5271163;28;20120;-71
2022/05/22 03:39:27;;;;;;;12.10;6.00;;;;;;;8.16;100.00;101755.16;5272813;28;20024;-71
2022/05/22 03:41:58;;;;;;;9.45;5.35;;;;;;;8.16;100.00;101752.50;5266282;28;20024;-72
2022/05/22 03:44:29;;;;;;;8.23;4.90;;;;;;;8.15;100.00;101760.66;5279726;28;20019;-70
2022/05/22 03:46:59;;;;;;;5.32;3.85;;;;;;;8.20;100.00;101758.44;5266107;28;20111;-71
2022/05/22 03:49:30;;;;;;;11.05;5.07;;;;;;;8.21;100.00;101758.28;5269807;28;20032;-71
2022/05/22 03:52:00;;;;;;;13.52;6.32;;;;;;;8.19;100.00;101762.09;5287386;28;20027;-70
2022/05/22 03:54:31;;;;;;;11.77;5.88;;;;;;;8.15;100.00;101764.16;5268841;28;20028;-71
2022/05/22 03:57:02;;;;;;;17.25;6.82;;;;;;;8.11;100.00;101759.19;5266423;28;20027;-70
2022/05/22 03:59:32;;;;;;;14.57;6.80;;;;;;;8.10;100.00;101757.50;5285654;28;20527;-72
2022/05/22 04:02:03;;;;;;;22.17;7.32;;;;;;;8.12;100.00;101763.56;5286799;28;20473;-71
2022/05/22 04:04:34;;;;;;;15.40;7.53;;;;;;;8.14;100.00;101758.97;5287141;28;20114;-71
2022/05/22 04:07:04;;;;;;;22.20;8.82;;;;;;;8.12;100.00;101751.03;5280696;28;20020;-71
2022/05/22 04:09:35;;;;;;;18.52;6.65;;;;;;;8.12;100.00;101760.88;5278126;28;20027;-72
2022/05/22 04:12:08;;;;;;;13.93;7.47;;;;;;;8.14;100.00;101765.16;5279191;28;20012;-71
2022/05/22 04:14:38;;;;;;;15.48;6.90;;;;;;;8.17;100.00;101759.53;5271088;28;20023;-71
2022/05/22 04:17:09;;;;;;;12.52;6.15;;;;;;;8.17;100.00;101761.34;5269035;28;20024;-72
2022/05/22 04:19:40;;;;;;;11.77;6.70;;;;;;;8.16;100.00;101754.31;5278381;28;20020;-70
2022/05/22 04:22:10;;;;;;;10.05;5.43;;;;;;;8.20;100.00;101767.31;5286876;28;20073;-71
2022/05/22 04:27:31;;;;;;;11.00;5.57;;;;;;;8.17;100.00;101754.19;5275283;28;20085;-70
2022/05/22 04:30:01;;;;;;;15.85;6.80;;;;;;;8.19;100.00;101767.44;5286771;28;20144;-72
2022/05/22 04:32:31;;;;;;;17.02;7.45;;;;;;;8.24;100.00;101760.72;5276848;28;20097;-70
2022/05/22 04:35:02;;;;;;;15.13;7.03;;;;;;;8.36;100.00;101756.19;5269755;28;20027;-71
2022/05/22 04:37:32;;;;;;;19.27;7.28;;;;;;;8.47;100.00;101760.63;5286581;28;20370;-70
2022/05/22 04:40:04;;;;;;;18.27;8.38;;;;;;;8.52;100.00;101764.59;5273362;28;20032;-71
2022/05/22 04:42:36;;;;;;;21.95;8.48;;;;;;;8.63;100.00;101754.81;5286909;28;20028;-69
2022/05/22 04:45:08;;;;;;;17.90;8.55;;;;;;;8.72;100.00;101756.69;5273520;28;20476;-69
2022/05/22 04:47:41;;;;;;;13.57;8.25;;;;;;;8.83;100.00;101756.63;5272953;28;20024;-69
2022/05/22 04:50:13;;;;;;;16.65;7.78;;;;;;;8.88;100.00;101758.91;5277244;28;20106;-69
2022/05/22 04:52:43;;;;;;;12.25;7.32;;;;;;;8.93;100.00;101757.50;5282843;28;20030;-69
2022/05/22 04:55:14;;;;;;;21.17;8.32;;;;;;;8.95;100.00;101754.72;5276145;28;20419;-69
2022/05/22 04:57:44;;;;;;;18.13;9.30;;;;;;;9.05;100.00;101751.09;5287690;28;20526;-69
2022/05/22 05:00:15;;;;;;;17.08;9.27;;;;;;;9.12;100.00;101759.44;5273867;27;20032;-70
2022/05/22 05:02:47;;;;;;;16.40;8.65;;;;;;;9.16;100.00;101749.31;5274645;28;20024;-69
2022/05/22 05:05:17;;;;;;;14.85;8.43;;;;;;;9.18;100.00;101755.38;5279974;28;20488;-69
2022/05/22 05:07:48;;;;;;;17.08;8.07;;;;;;;9.16;100.00;101754.66;5287867;28;20026;-69
2022/05/22 05:10:18;;;;;;;17.65;8.15;;;;;;;9.18;100.00;101750.84;5286845;28;20069;-69
2022/05/22 05:12:49;;;;;;;16.75;8.50;;;;;;;9.34;100.00;101753.06;5274107;28;20046;-69
2022/05/22 05:15:21;;;;;;;18.92;9.68;;;;;;;9.46;100.00;101759.16;5285383;28;20488;-69
2022/05/22 05:17:51;;;;;;;19.33;9.07;;;;;;;9.57;100.00;101756.34;5276654;28;20481;-69
2022/05/22 05:20:23;;;;;;;16.75;8.60;;;;;;;9.70;100.00;101751.59;5274000;28;20048;-70
2022/05/22 05:22:53;;;;;;;17.52;9.32;;;;;;;9.83;100.00;101762.03;5275767;28;20047;-69
2022/05/22 05:25:24;;;;;;;16.17;9.07;;;;;;;9.98;100.00;101771.34;5284797;28;20066;-69
2022/05/22 05:27:54;;;;;;;20.83;10.07;;;;;;;10.16;100.00;101759.94;5275350;28;20039;-69
2022/05/22 05:30:24;;;;;;;23.88;9.73;;;;;;;10.35;100.00;101768.03;5286167;28;20080;-70
2022/05/22 05:32:57;;;;;;;22.05;11.10;;;;;;;10.54;100.00;101761.75;5273773;28;20107;-69
2022/05/22 05:35:27;;;;;;;19.38;9.25;;;;;;;10.71;100.00;101777.16;5286532;28;20076;-70
2022/05/22 05:37:58;;;;;;;17.65;8.63;;;;;;;10.87;100.00;101771.16;5287196;28;20027;-70
2022/05/22 05:40:28;;;;;;;20.48;8.85;;;;;;;11.03;100.00;101768.69;5287716;28;20015;-70
2022/05/22 05:42:59;;;;;;;16.88;8.98;;;;;;;11.21;100.00;101759.88;5286976;28;20031;-71
2022/05/22 05:45:29;;;;;;;27.65;9.40;;;;;;;11.38;100.00;101764.47;5276988;28;20024;-69
2022/05/22 05:48:00;;;;;;;23.88;9.60;;;;;;;11.54;100.00;101764.66;5283679;28;20024;-69
2022/05/22 05:50:31;;;;;;;20.67;9.23;;;;;;;11.70;100.00;101765.81;5275206;28;20023;-70
2022/05/22 05:53:02;;;;;;;18.58;8.82;;;;;;;11.87;100.00;101759.69;5271499;28;20020;-69
2022/05/22 05:55:32;;;;;;;19.45;10.05;;;;;;;12.14;100.00;101759.59;5274062;28;20024;-69
2022/05/22 05:58:03;;;;;;;19.02;9.15;;;;;;;12.72;100.00;101762.75;5287016;28;20131;-69
2022/05/22 06:00:34;;;;;;;16.35;9.52;;;;;;;13.57;100.00;101761.03;5285117;28;20019;-70
2022/05/22 06:03:04;;;;;;;16.45;7.57;;;;;;;14.28;100.00;101757.78;5278385;28;20024;-69
2022/05/22 06:05:35;;;;;;;22.10;8.02;;;;;;;14.72;100.00;101752.88;5279258;28;20023;-70
2022/05/22 06:08:05;;;;;;;18.35;7.60;;;;;;;15.31;100.00;101751.69;5283367;28;20019;-71
2022/05/22 06:10:38;;;;;;;18.70;7.00;;;;;;;15.96;100.00;101748.66;5287451;28;20415;-70
2022/05/22 06:13:08;;;;;;;15.85;8.07;;;;;;;16.72;100.00;101753.13;5275008;27;20024;-70
2022/05/22 06:15:39;;;;;;;15.10;7.20;;;;;;;17.19;100.00;101751.94;5269529;28;20050;-70
2022/05/22 06:18:09;;;;;;;14.68;7.22;;;;;;;17.57;100.00;101744.50;5265887;28;20114;-70
2022/05/22 06:20:40;;;;;;;15.65;7.72;;;;;;;17.76;100.00;101747.66;5285448;28;20055;-70
2022/05/22 06:23:10;;;;;;;17.80;8.07;;;;;;;17.96;100.00;101742.44;5286191;28;20030;-70
2022/05/22 06:25:44;;;;;;;14.00;7.38;;;;;;;17.66;100.00;101736.22;5278580;28;20340;-70
2022/05/22 06:28:16;;;;;;;17.15;7.95;;;;;;;17.24;100.00;101738.66;5280716;28;20027;-70
2022/05/22 06:30:46;;;;;;;22.38;8.00;;;;;;;17.00;100.00;101741.66;5286764;28;20023;-70
2022/05/22 06:33:17;;;;;;;17.27;8.48;;;;;;;17.30;100.00;101737.06;5272677;28;20024;-70
2022/05/22 06:35:47;;;;;;;14.52;7.68;;;;;;;17.52;100.00;101740.66;5284947;28;20380;-70
2022/05/22 06:41:09;;;;;;;17.88;8.52;;;;;;;18.20;100.00;101739.34;5286088;28;20032;-70
2022/05/22 06:43:39;;;;;;;21.20;8.38;;;;;;;18.19;100.00;101736.81;5277097;28;20065;-70
2022/05/22 06:46:10;;;;;;;16.55;7.38;;;;;;;18.37;100.00;101751.63;5281389;28;20532;-70
2022/05/22 06:48:40;;;;;;;14.77;7.75;;;;;;;18.47;100.00;101743.09;5275634;28;20047;-70
2022/05/22 06:51:11;;;;;;;15.15;7.55;;;;;;;18.54;100.00;101741.31;5268910;28;20133;-70
2022/05/22 06:53:41;;;;;;;18.42;7.50;;;;;;;18.97;100.00;101738.47;5274862;28;20032;-70
2022/05/22 06:56:12;;;;;;;15.82;7.55;;;;;;;19.61;100.00;101742.78;5269692;28;20019;-71
2022/05/22 06:58:42;;;;;;;11.95;6.75;;;;;;;20.06;100.00;101745.84;5285753;28;20119;-70
2022/05/22 07:01:15;;;;;;;12.98;6.88;;;;;;;20.12;100.00;101745.00;5277248;28;20044;-70
2022/05/22 07:03:45;;;;;;;14.65;7.57;;;;;;;20.47;100.00;101740.22;5278207;28;20774;-71
2022/05/22 07:06:16;;;;;;;14.13;6.63;;;;;;;20.76;100.00;101744.41;5267651;28;20149;-70
2022/05/22 07:08:46;;;;;;;17.92;6.68;;;;;;;21.25;100.00;101734.00;5283737;28;20024;-70
2022/05/22 07:14:08;;;;;;;10.73;6.18;;;;;;;20.98;100.00;101735.97;5271659;28;20025;-70
2022/05/22 07:16:40;;;;;;;14.73;5.82;;;;;;;21.14;100.00;101733.63;5285991;28;20447;-71
2022/05/22 07:19:11;;;;;;;12.95;5.60;;;;;;;21.75;100.00;101731.50;5285229;28;20108;-70
2022/05/22 07:21:42;;;;;;;12.02;5.90;;;;;;;21.72;100.00;101724.56;5284490;28;20030;-70
2022/05/22 07:24:13;;;;;;;10.48;5.93;;;;;;;21.17;100.00;101725.00;5285210;28;20031;-70
2022/05/22 07:26:44;;;;;;;13.18;6.05;;;;;;;21.43;100.00;101723.25;5282676;28;20078;-70
2022/05/22 07:29:14;;;;;;;12.93;6.00;;;;;;;21.62;100.00;101714.13;5274673;28;20055;-70
2022/05/22 07:31:45;;;;;;;17.27;6.63;;;;;;;21.72;100.00;101703.56;5285137;28;20074;-70
2022/05/22 07:34:16;;;;;;;10.45;5.40;;;;;;;22.40;100.00;101704.78;5273051;28;20020;-71
2022/05/22 07:36:49;;;;;;;12.50;5.20;;;;;;;22.69;100.00;101700.50;5277665;28;20036;-71
2022/05/22 07:39:20;;;;;;;12.93;5.53;;;;;;;23.12;98.43;101708.69;5263962;28;20032;-71
2022/05/22 07:41:51;;;;;;;12.52;4.72;;;;;;;23.15;92.80;101707.41;5286343;28;20481;-71
2022/05/22 07:44:21;;;;;;;11.30;4.82;;;;;;;23.39;100.00;101697.41;5285202;27;20019;-71
2022/05/22 07:46:52;;;;;;;20.65;5.15;;;;;;;23.37;89.98;101692.16;5272535;28;20477;-71
2022/05/22 07:52:11;;;;;;;16.95;4.72;;;;;;;23.83;89.57;101684.38;5263837;28;20031;-71
2022/05/22 07:54:42;;;;;;;13.18;4.47;;;;;;;23.76;85.40;101685.31;5270079;28;20442;-71
2022/05/22 07:57:13;;;;;;;11.18;4.13;;;;;;;23.77;78.47;101684.25;5284534;28;20055;-71
2022/05/22 07:59:44;;;;;;;12.77;3.80;;;;;;;23.91;79.62;101681.31;5271590;28;20023;-71
2022/05/22 08:02:15;;;;;;;11.15;3.75;;;;;;;23.73;76.35;101679.47;5271106;28;20024;-71
2022/05/22 08:04:45;;;;;;;11.93;3.70;;;;;;;23.73;74.26;101672.09;5285378;28;20028;-71
2022/05/22 08:07:16;;;;;;;11.25;3.80;;;;;;;23.95;80.03;101666.91;5282235;28;20026;-71
2022/05/22 08:09:46;;;;;;;12.48;3.97;;;;;;;24.07;78.00;101666.09;5273914;28;20443;-71
2022/05/22 08:12:17;;;;;;;13.85;4.03;;;;;;;24.21;73.72;101667.53;5284421;28;20031;-71
2022/05/22 08:14:48;;;;;;;13.90;4.53;;;;;;;24.33;76.84;101664.78;5284473;28;20099;-71
2022/05/22 08:17:21;;;;;;;10.93;4.10;;;;;;;24.21;75.08;101660.16;5270961;28;20563;-71
2022/05/22 08:19:52;;;;;;;17.20;5.05;;;;;;;24.16;74.23;101653.72;5284789;28;20057;-71
2022/05/22 08:22:22;;;;;;;14.23;5.25;;;;;;;24.72;77.28;101646.81;5283742;28;20039;-71
2022/05/22 08:24:53;;;;;;;14.73;4.70;;;;;;;24.51;76.64;101640.03;5269807;28;20035;-71
2022/05/22 08:27:23;;;;;;;15.35;5.55;;;;;;;24.34;75.85;101639.03;5284427;28;20102;-71
2022/05/22 08:29:55;;;;;;;17.13;5.75;;;;;;;24.21;72.49;101645.63;5282494;28;20069;-71
2022/05/22 08:32:25;;;;;;;14.30;5.97;;;;;;;24.61;74.47;101642.16;5277089;28;20389;-71
2022/05/22 08:34:56;;;;;;;12.10;5.10;;;;;;;24.31;70.32;101642.28;5275155;28;20031;-71
2022/05/22 08:37:27;;;;;;;10.88;4.82;;;;;;;24.25;72.87;101635.84;5288139;28;20031;-71
2022/05/22 08:39:58;;;;;;;14.25;4.80;;;;;;;24.92;74.66;101633.50;5283313;28;20393;-71
2022/05/22 08:42:37;;;;;;;16.90;5.43;;;;;;;25.15;68.06;101629.03;5267219;28;20077;-71
2022/05/22 08:45:16;;;;;;;22.13;6.22;;;;;;;24.32;70.75;101633.81;5274789;28;20028;-71
2022/05/22 08:48:07;;;;;;;14.93;5.93;;;;;;;23.53;71.39;101622.22;5288745;28;20030;-71
2022/05/22 08:50:39;;;;;;;13.32;5.60;;;;;;;22.84;76.55;101634.47;5275211;28;20020;-71
2022/05/22 08:53:20;;;;;;;16.48;5.53;;;;;;;23.35;73.16;101620.38;5288023;28;20061;-70
2022/05/22 09:02:15;;;;;;;14.67;6.23;;;;;;;23.30;75.56;101622.16;5277369;28;20485;-71
2022/05/22 09:04:52;;;;;;;16.80;5.72;;;;;;;23.96;72.85;101627.47;5288396;28;20056;-72
2022/05/22 09:07:35;;;;;;;23.08;6.80;;;;;;;23.82;73.11;101628.75;5286806;28;20019;-71
2022/05/22 09:10:09;;;;;;;17.90;5.70;;;;;;;24.72;70.30;101624.84;5287641;28;20059;-71
2022/05/22 09:13:14;;;;;;;11.38;5.15;;;;;;;24.52;67.84;101623.34;5288054;28;20050;-71
2022/05/22 09:16:04;;;;;;;11.82;4.88;;;;;;;24.94;68.91;101614.06;5281859;28;20505;-71
2022/05/22 09:18:42;;;;;;;11.88;4.78;;;;;;;25.17;66.72;101610.44;5280093;28;20027;-71
2022/05/22 09:21:36;;;;;;;15.10;4.63;;;;;;;25.50;67.25;101617.91;5266328;28;20460;-71
2022/05/22 09:24:22;;;;;;;14.73;4.88;;;;;;;24.84;62.26;101617.41;5274144;28;20114;-72
2022/05/22 09:27:06;;;;;;;11.82;4.47;;;;;;;25.14;65.80;101611.75;5269580;28;20106;-72
2022/05/22 09:29:59;;;;;;;15.35;5.75;;;;;;;25.21;63.82;101603.38;5280009;28;20031;-71
2022/05/22 09:32:43;;;;;;;9.15;4.72;;;;;;;24.54;62.78;101603.88;5276700;28;20529;-71
2022/05/22 09:35:33;;;;;;;13.32;5.28;;;;;;;24.32;63.84;101600.91;5265588;28;20032;-71
2022/05/22 09:38:27;;;;;;;10.50;4.30;;;;;;;24.50;63.40;101599.97;5279395;28;20102;-71
2022/05/22 09:41:16;;;;;;;12.07;4.18;;;;;;;24.27;62.05;101589.81;5279513;28;20106;-72
2022/05/22 09:44:06;;;;;;;14.50;5.15;;;;;;;24.14;70.94;101596.38;5287020;28;20542;-71
2022/05/22 09:46:54;;;;;;;13.00;5.32;;;;;;;24.40;66.71;101583.25;5280339;28;20107;-71
2022/05/22 09:49:50;;;;;;;11.85;4.93;;;;;;;24.79;67.18;101581.63;5282591;28;20032;-71
2022/05/22 09:52:26;;;;;;;14.65;5.28;;;;;;;25.30;65.29;101585.41;5286633;28;20451;-71
2022/05/22 09:55:16;;;;;;;15.95;5.45;;;;;;;24.65;69.18;101586.59;5278896;28;20051;-71
2022/05/22 09:58:11;;;;;;;14.77;5.38;;;;;;;24.46;65.70;101577.66;5284345;28;20080;-71
2022/05/22 10:00:48;;;;;;;15.23;4.88;;;;;;;24.17;67.36;101584.09;5271404;28;20016;-71
2022/05/22 10:03:56;;;;;;;14.18;4.72;;;;;;;24.11;63.85;101568.63;5275631;28;20055;-71
2022/05/22 10:06:37;;;;;;;16.30;5.85;;;;;;;24.73;63.30;101561.50;5285925;28;20031;-71
2022/05/22 10:09:35;;;;;;;15.18;4.70;;;;;;;24.66;61.93;101563.56;5286475;28;20054;-71
2022/05/22 10:12:38;;;;;;;12.50;4.85;;;;;;;24.94;62.04;101554.50;5270709;28;20020;-70
2022/05/22 10:15:28;;;;;;;13.10;4.60;;;;;;;25.17;62.21;101541.78;5274478;28;20035;-71
2022/05/22 10:18:14;;;;;;;9.75;4.13;;;;;;;24.82;63.52;101547.41;5276297;28;20040;-71
2022/05/22 10:21:20;;;;;;;16.70;5.25;;;;;;;24.53;64.06;101545.44;5279680;28;20032;-71
2022/05/22 10:24:09;;;;;;;11.52;4.43;;;;;;;24.32;62.88;101537.84;5265513;28;20024;-71
2022/05/22 10:27:17;;;;;;;13.20;4.50;;;;;;;24.33;62.48;101528.53;5267306;28;20028;-70
2022/05/22 10:29:56;;;;;;;14.00;4.40;;;;;;;24.83;71.24;101516.13;5285579;28;20028;-71
2022/05/22 10:32:33;;;;;;;11.25;4.45;;;;;;;25.46;62.84;101513.22;5265046;28;20020;-71
2022/05/22 10:35:41;;;;;;;12.35;4.13;;;;;;;25.45;59.89;101517.03;5269093;28;20034;-71
2022/05/22 10:38:35;;;;;;;15.48;4.40;;;;;;;24.49;57.75;101507.78;5269310;28;20031;-71
2022/05/22 10:44:20;;;;;;;13.60;4.40;;;;;;;24.06;61.56;101511.78;5285881;28;20355;-72
2022/05/22 10:46:54;;;;;;;14.68;4.75;;;;;;;24.27;65.11;101491.94;5286246;28;20488;-71
2022/05/22 10:49:34;;;;;;;13.38;4.28;;;;;;;24.48;63.97;101493.22;5269818;28;20028;-71
2022/05/22 10:52:06;;;;;;;15.00;4.63;;;;;;;24.53;60.23;101487.03;5264038;28;20107;-71
2022/05/22 10:54:51;;;;;;;12.35;4.32;;;;;;;24.84;69.17;101493.94;5283117;28;20476;-71
2022/05/22 10:57:26;;;;;;;13.63;3.30;;;;;;;24.57;67.58;101485.47;5271747;28;20080;-71
2022/05/22 10:59:57;;;;;;;9.90;3.97;;;;;;;24.30;63.01;101482.41;5286095;27;20104;-71
2022/05/22 11:02:30;;;;;;;11.18;3.40;;;;;;;24.09;62.91;101478.38;5284799;28;20027;-71
2022/05/22 11:05:01;;;;;;;9.77;3.85;;;;;;;24.27;66.08;101469.19;5285886;28;20027;-71
2022/05/22 11:07:34;;;;;;;11.52;4.38;;;;;;;24.45;58.29;101471.78;5285507;28;20019;-71
2022/05/22 11:10:26;;;;;;;14.82;4.22;;;;;;;24.65;65.52;101460.41;5273513;28;20027;-71
2022/05/22 11:13:20;;;;;;;11.30;3.95;;;;;;;24.37;58.30;101460.38;5273619;28;20023;-72
2022/05/22 11:15:51;;;;;;;13.07;3.88;;;;;;;24.50;63.86;101455.44;5285100;28;20028;-71
2022/05/22 11:18:24;;;;;;;8.88;3.47;;;;;;;24.18;62.29;101454.19;5271655;28;20012;-71
2022/05/22 11:21:02;;;;;;;13.30;3.97;;;;;;;23.78;66.57;101452.22;5276971;28;20032;-71
2022/05/22 11:23:48;;;;;;;12.98;3.88;;;;;;;24.18;67.31;101445.97;5267008;28;20023;-71
2022/05/22 11:26:44;;;;;;;13.95;4.38;;;;;;;23.87;63.37;101428.88;5285100;28;20027;-72
2022/05/22 11:29:49;;;;;;;9.25;3.58;;;;;;;23.91;59.30;101424.56;5274987;28;20016;-71
2022/05/22 11:32:29;;;;;;;9.95;3.22;;;;;;;24.27;63.04;101417.94;5263575;28;20036;-72
2022/05/22 11:35:17;;;;;;;14.50;4.63;;;;;;;24.26;58.73;101404.47;5281673;28;20052;-71
2022/05/22 11:38:25;;;;;;;12.63;3.88;;;;;;;24.60;62.51;101397.22;5284100;28;20031;-71
2022/05/22 11:41:32;;;;;;;6.85;3.28;;;;;;;24.06;62.25;101404.88;5277512;28;20020;-71
2022/05/22 11:44:30;;;;;;;7.93;3.20;;;;;;;24.42;61.87;101400.16;5263805;28;20065;-72
2022/05/22 11:47:23;;;;;;;8.77;3.45;;;;;;;24.83;60.95;101403.63;5274108;28;20480;-71
2022/05/22 11:50:29;;;;;;;12.90;4.15;;;;;;;24.63;56.35;101396.69;5284684;28;20069;-71
2022/05/22 11:53:06;;;;;;;8.75;3.85;;;;;;;24.41;58.03;101388.34;5270686;28;20438;-71
2022/05/22 11:56:02;;;;;;;10.63;3.85;;;;;;;24.29;55.45;101396.56;5271208;28;20032;-71
2022/05/22 11:58:38;;;;;;;13.32;3.35;;;;;;;24.41;60.07;101387.53;5284792;28;20030;-71
2022/05/22 12:01:18;;;;;;;8.27;3.63;;;;;;;24.42;56.43;101387.25;5284737;28;20050;-71
2022/05/22 12:04:26;;;;;;;6.43;3.30;;;;;;;24.35;60.22;101386.56;5283148;27;20382;-71
2022/05/22 12:07:13;;;;;;;9.65;4.30;;;;;;;24.56;57.96;101378.75;5271624;28;20473;-71
2022/05/22 12:09:57;;;;;;;10.43;3.58;;;;;;;24.58;55.68;101371.91;5274719;28;20519;-71
2022/05/22 12:12:52;;;;;;;11.30;3.80;;;;;;;24.38;56.00;101358.66;5283393;28;20031;-71
2022/05/22 12:15:58;;;;;;;10.32;3.55;;;;;;;24.53;56.55;101356.19;5280283;28;20016;-71
2022/05/22 12:19:05;;;;;;;12.07;3.70;;;;;;;25.08;53.03;101356.59;5275673;28;20430;-71
2022/05/22 12:21:58;;;;;;;9.73;4.13;;;;;;;25.31;51.50;101342.69;5277850;28;20069;-71